Latest Coastal Weather Observations for Cape Byron

IDN60701

Issued at 9:05 pm EDT Monday 20 October 2014 (issued every 10 minutes, with the page automatically refreshed every 10 minutes)

About coastal observations | Map of coastal stations | Coastal observations for NSW | Marine services | Other Formats
Station Details ID: 058216 Name: CAPE BYRON AWS Lat: -28.64 Lon: 153.64 Height: 95.0 m
Data from the previous 72 hours. | See also: Recent months at Cape Byron
Date/Time
EDT
Temp

°C
Wind Pressure Rain
since 9am
mm
Weather Cloud Vis
km
Sea
Height
m
Swell
Dir
 
Speed
knots
Gust
knots
hPa Trend Height
m
Period
s
Dir
20/09:00pm 19.8 SW 9 11 1027.1 - 0.0 - - - - - - -
20/08:30pm 20.2 S 13 15 1026.6 - 0.0 - - - - - - -
20/08:00pm 20.0 S 12 14 1026.2 - 0.0 - - - - - - -
20/07:30pm 19.7 S 11 13 1025.7 - 0.0 - - - - - - -
20/07:00pm 19.8 S 10 12 1025.3 - 0.0 - - - - - - -
20/06:30pm 20.5 SSE 8 10 1025.1 - 0.0 - - - - - - -
20/06:00pm 21.5 SE 6 8 1024.5 - 0.0 - - - - - - -
20/05:30pm 22.5 ENE 5 7 1024.1 - 0.0 - - - - - - -
20/05:00pm 23.9 NE 5 7 1023.8 - 0.0 - - - - - - -
20/04:30pm 23.8 NNE 7 8 1023.5 - 0.0 - - - - - - -
20/04:00pm 22.9 NNE 9 11 1023.2 - 0.0 - - - - - - -
20/03:30pm 23.2 NNE 8 11 1023.2 - 0.0 - - - - - - -
20/03:00pm 23.3 NNE 9 13 1023.3 - 0.0 - - - - - - -
20/02:30pm 23.5 NNE 11 14 1023.5 - 0.0 - - - - - - -
20/02:00pm 24.4 NNE 13 15 1023.9 - 0.0 - - - - - - -
20/01:30pm 23.8 NNE 14 16 1024.0 - 0.0 - - - - - - -
20/01:00pm 23.5 NE 14 17 1024.1 - 0.0 - - - - - - -
20/12:30pm 23.3 NE 14 17 1024.3 - 0.0 - - - - - - -
20/12:00pm 22.7 NE 13 17 1024.7 - 0.0 - - - - - - -
20/11:30am 22.3 NNE 11 15 1024.9 - 0.0 - - - - - - -
20/11:00am 21.7 NNE 9 14 1025.0 - 0.0 - - - - - - -
20/10:30am 21.8 NNE 8 11 1025.4 - 0.0 - - - - - - -
20/10:00am 21.3 N 7 10 1025.5 - 0.0 - - - - - - -
20/09:30am 20.2 N 6 8 1025.4 - 0.0 - - - - - - -
20/09:00am 19.5 N 5 7 1025.5 - 0.0 - - - - - - -
20/08:30am 18.6 N 5 7 1025.4 - 0.0 - - - - - - -
20/08:00am 18.3 N 4 6 1025.2 - 0.0 - - - - - - -
20/07:30am 17.0 NNW 3 5 1025.1 - 0.0 - - - - - - -
20/07:00am 16.1 NW 4 6 1024.8 - 0.0 - - - - - - -
20/06:30am 15.5 NW 6 8 1024.6 - 0.0 - - - - - - -
20/06:00am 15.5 WNW 6 8 1024.5 - 0.0 - - - - - - -
20/05:30am 15.5 WNW 6 8 1024.5 - 0.0 - - - - - - -
20/05:00am 15.5 WNW 7 8 1024.4 - 0.0 - - - - - - -
20/04:30am 15.6 NW 7 8 1024.4 - 0.0 - - - - - - -
20/04:00am 15.5 NW 7 7 1024.4 - 0.0 - - - - - - -
20/03:30am 15.5 NW 6 7 1024.5 - 0.0 - - - - - - -
20/03:00am 15.7 NW 6 7 1024.7 - 0.0 - - - - - - -
20/02:30am 16.2 NW 6 7 1025.1 - 0.0 - - - - - - -
20/02:00am 16.4 NW 6 7 1025.4 - 0.0 - - - - - - -
20/01:30am 17.1 NNW 4 6 1025.8 - 0.0 - - - - - - -
20/01:00am 17.7 N 5 7 1026.2 - 0.0 - - - - - - -
20/12:30am 17.9 N 6 9 1026.4 - 0.0 - - - - - - -
20/12:00am 18.6 NE 10 13 1026.6 - 0.0 - - - - - - -
 
Date/Time
EDT
Temp

°C
Wind Pressure Rain
since 9am
mm
Weather Cloud Vis
km
Sea
Height
m
Swell
Dir
 
Speed
knots
Gust
knots
hPa Trend Height
m
Period
s
Dir
19/11:30pm 18.4 NE 9 13 1026.8 - 0.0 - - - - - - -
19/11:00pm 18.2 ENE 11 15 1026.7 - 0.0 - - - - - - -
19/10:30pm 17.7 ENE 10 14 1026.6 - 0.0 - - - - - - -
19/10:00pm 17.6 ENE 9 12 1026.6 - 0.0 - - - - - - -
19/09:30pm 17.8 ENE 10 13 1026.6 - 0.0 - - - - - - -
19/09:00pm 18.0 E 7 11 1026.3 - 0.0 - - - - - - -
19/08:30pm 18.1 E 6 10 1025.9 - 0.0 - - - - - - -
19/08:00pm 18.2 E 7 13 1025.5 - 0.0 - - - - - - -
19/07:30pm 18.7 ENE 6 11 1025.3 - 0.0 - - - - - - -
19/07:00pm 19.1 - - - 1025.1 - - - - - - - - -
19/06:30pm 20.4 NE 8 13 1025.0 - 0.0 - - - - - - -
19/06:00pm 21.4 NE 9 12 1024.8 - 0.0 - - - - - - -
19/05:30pm 21.8 NE 12 14 1024.6 - 0.0 - - - - - - -
19/05:00pm 22.3 NE 13 15 1024.5 - 0.0 - - - - - - -
19/04:30pm 22.4 NE 13 14 1024.4 - 0.0 - - - - - - -
19/04:00pm 22.7 NE 13 15 1024.7 - 0.0 - - - - - - -
19/03:30pm 22.3 NE 13 16 1024.7 - 0.0 - - - - - - -
19/03:00pm 22.5 ENE 13 17 1025.0 - 0.0 - - - - - - -
19/02:30pm 21.6 ENE 13 16 1025.4 - 0.0 - - - - - - -
19/02:00pm 21.6 ENE 14 18 1026.0 - 0.0 - - - - - - -
19/01:30pm 21.5 ENE 15 17 1026.7 - 0.0 - - - - - - -
19/01:00pm 21.8 E 13 16 1027.0 - 0.0 - - - - - - -
19/12:30pm 21.4 E 13 15 1027.3 - 0.0 - - - - - - -
19/12:00pm 21.5 E 12 17 1027.5 - 0.0 - - - - - - -
19/11:30am 21.5 SE 12 15 1027.9 - 0.0 - - - - - - -
19/11:00am 21.3 SE 10 13 1028.2 - 0.0 - - - - - - -
19/10:30am 19.8 S 11 13 1028.4 - 0.0 - - - - - - -
19/10:00am 19.4 S 10 12 1028.5 - 0.0 - - - - - - -
19/09:30am 19.7 SSW 8 10 1028.4 - 0.0 - - - - - - -
19/09:00am 18.7 SW 8 11 1028.3 - 1.2 - - - - - - -
19/08:30am 17.6 SW 7 10 1028.1 - 1.2 - - - - - - -
19/08:00am 16.7 SW 9 11 1027.8 - 1.2 - - - - - - -
19/07:30am 15.9 WSW 11 14 1027.5 - 1.2 - - - - - - -
19/07:00am 15.6 WSW 12 15 1027.2 - 1.2 - - - - - - -
19/06:30am 15.4 WSW 11 15 1026.8 - 1.2 - - - - - - -
19/06:00am 15.5 WSW 11 14 1026.6 - 1.2 - - - - - - -
19/05:30am 15.6 SW 10 12 1026.4 - 1.2 - - - - - - -
19/05:00am 16.2 WSW 10 12 1026.3 - 1.2 - - - - - - -
19/04:30am 16.4 WSW 7 10 1026.2 - 1.2 - - - - - - -
19/04:00am 17.9 ESE 10 12 1026.0 - 1.2 - - - - - - -
19/03:30am 18.1 ESE 11 15 1025.9 - 1.2 - - - - - - -
19/03:00am 18.2 ESE 13 16 1026.0 - 1.2 - - - - - - -
19/02:30am 18.4 SE 13 16 1026.3 - 1.2 - - - - - - -
19/02:00am 18.4 E 13 16 1026.5 - 1.2 - - - - - - -
19/01:30am 18.6 SE 12 15 1026.9 - 1.2 - - - - - - -
19/01:00am 18.6 ESE 14 17 1027.3 - 1.2 - - - - - - -
19/12:30am 18.7 ESE 15 19 1027.5 - 1.2 - - - - - - -
19/12:00am 18.6 ESE 16 19 1027.6 - 1.2 - - - - - - -
 
Date/Time
EDT
Temp

°C
Wind Pressure Rain
since 9am
mm
Weather Cloud Vis
km
Sea
Height
m
Swell
Dir
 
Speed
knots
Gust
knots
hPa Trend Height
m
Period
s
Dir
18/11:30pm 18.6 ESE 17 19 1027.6 - 1.2 - - - - - - -
18/11:00pm 18.5 E 17 20 1027.7 - 1.2 - - - - - - -
18/10:30pm 18.7 ESE 17 21 1027.7 - 1.2 - - - - - - -
18/10:00pm 18.7 ESE 17 21 1027.7 - 1.2 - - - - - - -
18/09:30pm 18.5 SE 12 15 1027.7 - 1.2 - - - - - - -
18/09:00pm 18.1 ESE 16 19 1027.4 - 1.2 - - - - - - -
18/08:30pm 17.7 SE 15 21 1027.2 - 1.2 - - - - - - -
18/08:00pm 18.5 SE 13 17 1027.1 - 1.2 - - - - - - -
18/07:30pm 18.6 SE 19 23 1026.7 - 1.2 - - - - - - -
18/07:00pm 19.0 SSE 12 16 1026.3 - 1.2 - - - - - - -
18/06:30pm 18.9 SSE 11 14 1025.9 - 1.2 - - - - - - -
18/06:00pm 18.6 S 18 23 1025.5 - 1.2 - - - - - - -
18/05:45pm 18.6 S 20 24 1025.3 - 1.2 - - - - - - -
18/05:30pm 19.2 SE 17 20 1025.1 - 1.2 - - - - - - -
18/05:00pm 18.9 SSE 16 19 1025.2 - 1.2 - - - - - - -
18/04:30pm 18.3 S 18 22 1025.2 - 1.2 - - - - - - -
18/04:00pm 18.4 S 17 22 1025.2 - 1.0 - - - - - - -
18/03:59pm 18.3 S 17 22 1025.2 - 1.0 - - - - - - -
18/03:30pm 17.5 S 10 12 1025.5 - 1.0 - - - - - - -
18/03:00pm 17.3 SSE 11 15 1025.8 - 0.2 - - - - - - -
18/02:30pm 16.7 SSE 16 21 1025.9 - 0.2 - - - - - - -
18/02:00pm 17.8 S 21 26 1025.9 - 0.2 - - - - - - -
18/01:30pm 17.7 S 24 28 1026.0 - 0.2 - - - - - - -
18/01:00pm 18.4 SSW 17 22 1026.3 - 0.2 - - - - - - -
18/12:30pm 17.8 SSW 23 26 1026.6 - 0.2 - - - - - - -
18/12:00pm 17.3 SSW 24 28 1026.7 - 0.2 - - - - - - -
18/11:30am 18.5 SSW 25 29 1026.8 - 0.2 - - - - - - -
18/11:00am 18.9 SSW 22 27 1026.8 - 0.2 - - - - - - -
18/10:30am 18.8 SSW 20 25 1026.8 - 0.2 - - - - - - -
18/10:00am 18.7 SSW 14 20 1026.8 - 0.0 - - - - - - -
18/09:30am 17.7 SW 18 25 1026.5 - 0.0 - - - - - - -
18/09:00am 16.7 SW 17 22 1026.5 - 4.6 - - - - - - -
18/08:34am 15.9 SW 17 27 1026.5 - 4.6 - - - - - - -
18/08:30am 15.7 SW 15 20 1026.4 - 4.6 - - - - - - -
18/08:00am 14.5 WSW 15 19 1026.2 - 4.6 - - - - - - -
18/07:30am 13.9 WSW 17 21 1025.8 - 4.6 - - - - - - -
18/07:00am 13.7 WSW 16 21 1025.4 - 4.6 - - - - - - -
18/06:30am 14.2 SW 17 22 1025.0 - 4.6 - - - - - - -
18/06:00am 14.3 SW 14 19 1024.7 - 4.6 - - - - - - -
18/05:30am 14.7 SW 15 19 1024.5 - 4.6 - - - - - - -
18/05:00am 15.2 SSW 13 17 1024.3 - 4.6 - - - - - - -
18/04:30am 14.8 SW 16 20 1023.8 - 4.4 - - - - - - -
18/04:00am 14.9 SW 16 23 1023.9 - 3.6 - - - - - - -
18/03:30am 14.7 SW 15 19 1023.7 - 3.0 - - - - - - -
18/03:00am 14.7 WSW 16 21 1023.2 - 3.0 - - - - - - -
18/02:30am 14.9 WSW 15 19 1023.4 - 3.0 - - - - - - -
18/02:00am 15.1 WSW 13 18 1023.5 - 3.0 - - - - - - -
18/01:30am 15.2 WSW 15 18 1023.9 - 3.0 - - - - - - -
18/01:00am 15.1 WSW 15 19 1023.9 - 3.0 - - - - - - -
18/12:30am 15.4 WSW 12 15 1024.0 - 3.0 - - - - - - -
18/12:00am 15.3 SW 11 14 1024.2 - 2.8 Recent precip. - - - - - -
 
Date/Time
EDT
Temp

°C
Wind Pressure Rain
since 9am
mm
Weather Cloud Vis
km
Sea
Height
m
Swell
Dir
 
Speed
knots
Gust
knots
hPa Trend Height
m
Period
s
Dir
17/11:30pm 15.7 S 21 28 1024.2 - 2.2 - - - - - - -
17/11:04pm 16.8 SSW 23 34 1023.6 - 0.0 - - - - - - -
17/11:00pm 17.3 SSW 22 31 1023.6 - 0.0 - - - - - - -
17/10:53pm 18.5 SW 20 31 1023.5 - 0.0 - - - - - - -
17/10:30pm 19.8 SE 14 18 1023.4 - 0.0 - - - - - - -
17/10:00pm 19.9 SSE 14 19 1023.3 - 0.0 - - - - - - -
17/09:30pm 19.8 SSE 12 16 1023.2 - 0.0 - - - - - - -

Other Formats:

Comma delimited format used in spreadsheet applications
http://www.bom.gov.au/fwo/IDN60701/IDN60701.94599.axf

JavaScript Object Notation format (JSON) in row-major order
http://www.bom.gov.au/fwo/IDN60701/IDN60701.94599.json